createdAt,value
2018-11-28T00:01:56.100Z,10.43
2018-11-28T00:04:26.566Z,8.55
2018-11-28T00:06:57.047Z,8.48
2018-11-28T00:09:28.414Z,9.80
2018-11-28T00:11:59.628Z,8.23
2018-11-28T00:14:30.341Z,8.30
2018-11-28T00:17:01.593Z,13.03
2018-11-28T00:19:32.287Z,8.13
2018-11-28T00:22:10.153Z,8.63
2018-11-28T00:24:41.478Z,8.63
2018-11-28T00:27:13.005Z,8.48
2018-11-28T00:29:45.123Z,10.72
2018-11-28T00:32:16.045Z,9.73
2018-11-28T00:34:47.514Z,8.20
2018-11-28T00:37:19.634Z,8.63
2018-11-28T00:39:50.415Z,8.45
2018-11-28T00:42:21.954Z,10.05
2018-11-28T00:44:59.262Z,9.45
2018-11-28T00:47:30.517Z,10.45
2018-11-28T00:50:01.570Z,9.50
2018-11-28T00:52:33.758Z,11.33
2018-11-28T00:55:14.311Z,9.65
2018-11-28T00:57:48.408Z,8.68
2018-11-28T01:00:27.196Z,8.10
2018-11-28T01:03:25.885Z,9.50
2018-11-28T01:08:49.347Z,10.40
2018-11-28T01:11:21.800Z,8.15
2018-11-28T01:13:58.759Z,10.00
2018-11-28T01:16:33.576Z,8.08
2018-11-28T01:19:06.282Z,9.70
2018-11-28T01:21:37.650Z,9.95
2018-11-28T01:24:08.753Z,9.28
2018-11-28T01:26:40.379Z,7.53
2018-11-28T01:29:12.756Z,8.45
2018-11-28T01:31:45.218Z,12.33
2018-11-28T01:34:16.754Z,13.18
2018-11-28T01:36:47.241Z,10.15
2018-11-28T01:39:18.551Z,8.08
2018-11-28T01:41:50.016Z,10.58
2018-11-28T01:44:21.726Z,11.70
2018-11-28T01:46:53.056Z,12.35
2018-11-28T01:49:24.285Z,7.83
2018-11-28T01:51:56.660Z,7.75
2018-11-28T01:54:27.694Z,8.10
2018-11-28T01:56:59.006Z,9.05
2018-11-28T01:59:30.235Z,7.22
2018-11-28T02:02:02.917Z,9.48
2018-11-28T02:04:33.666Z,8.55
2018-11-28T02:07:06.816Z,7.87
2018-11-28T02:09:37.393Z,9.70
2018-11-28T02:12:08.465Z,10.23
2018-11-28T02:14:39.668Z,10.50
2018-11-28T02:17:10.143Z,8.80
2018-11-28T02:19:43.634Z,8.85
2018-11-28T02:22:15.703Z,9.20
2018-11-28T02:24:47.691Z,6.95
2018-11-28T02:27:18.137Z,9.33
2018-11-28T02:29:48.638Z,9.90
2018-11-28T02:32:20.850Z,9.60
2018-11-28T02:34:51.407Z,8.75
2018-11-28T02:37:21.942Z,10.23
2018-11-28T02:39:54.691Z,7.47
2018-11-28T02:45:28.844Z,11.40
2018-11-28T02:48:25.220Z,12.20
2018-11-28T02:51:01.894Z,9.53
2018-11-28T02:54:02.343Z,9.28
2018-11-28T02:57:37.822Z,14.05
2018-11-28T03:00:17.398Z,8.18
2018-11-28T03:02:49.072Z,8.95
2018-11-28T03:05:21.684Z,7.70
2018-11-28T03:07:56.189Z,9.55
2018-11-28T03:10:27.761Z,7.95
2018-11-28T03:17:31.894Z,8.50
2018-11-28T03:20:14.206Z,7.30
2018-11-28T03:22:46.505Z,7.05
2018-11-28T03:25:39.440Z,10.88
2018-11-28T03:28:16.170Z,10.72
2018-11-28T03:30:48.276Z,9.33
2018-11-28T03:33:20.877Z,9.25
2018-11-28T03:35:51.567Z,9.68
2018-11-28T03:38:25.252Z,13.25
2018-11-28T03:41:05.678Z,8.78
2018-11-28T03:43:36.928Z,7.97
2018-11-28T03:46:11.719Z,9.28
2018-11-28T03:48:44.234Z,6.45
2018-11-28T03:51:15.464Z,8.95
2018-11-28T03:53:49.099Z,8.30
2018-11-28T03:56:20.607Z,12.47
2018-11-28T03:58:57.141Z,7.78
2018-11-28T04:01:29.631Z,9.20
2018-11-28T04:04:01.135Z,9.65
2018-11-28T04:06:34.679Z,6.95
2018-11-28T04:09:05.407Z,8.25
2018-11-28T04:11:38.979Z,7.62
2018-11-28T04:14:10.522Z,6.03
2018-11-28T04:16:42.814Z,10.55
2018-11-28T04:19:16.195Z,7.22
2018-11-28T04:22:10.953Z,9.08
2018-11-28T04:25:18.533Z,9.85
2018-11-28T04:27:51.670Z,8.55
2018-11-28T04:30:44.305Z,7.33
2018-11-28T04:40:25.420Z,7.92
2018-11-28T04:54:12.150Z,8.20
2018-11-28T04:57:37.726Z,6.83
2018-11-28T05:05:35.898Z,7.05
2018-11-28T05:08:08.524Z,9.28
2018-11-28T05:10:42.818Z,10.25
2018-11-28T05:13:14.542Z,5.33
2018-11-28T05:15:46.771Z,7.87
2018-11-28T05:18:19.329Z,7.37
2018-11-28T05:20:51.336Z,8.78
2018-11-28T05:26:26.074Z,6.87
2018-11-28T05:28:56.721Z,9.95
2018-11-28T05:31:27.358Z,8.03
2018-11-28T05:33:58.270Z,5.95
2018-11-28T05:36:29.339Z,7.67
2018-11-28T05:39:00.099Z,6.87
2018-11-28T05:41:31.018Z,6.35
2018-11-28T05:44:01.203Z,7.95
2018-11-28T05:46:31.848Z,11.00
2018-11-28T05:49:03.379Z,7.03
2018-11-28T05:51:35.889Z,8.40
2018-11-28T05:54:06.230Z,4.55
2018-11-28T05:56:36.664Z,8.75
2018-11-28T05:59:06.574Z,6.90
2018-11-28T06:01:37.322Z,6.30
2018-11-28T06:04:07.525Z,9.75
2018-11-28T06:06:38.371Z,7.22
2018-11-28T06:09:10.342Z,10.32
2018-11-28T06:11:40.270Z,7.00
2018-11-28T06:14:11.055Z,9.55
2018-11-28T06:16:41.050Z,7.35
2018-11-28T06:19:10.943Z,9.70
2018-11-28T06:21:40.471Z,7.97
2018-11-28T06:24:09.695Z,7.17
2018-11-28T06:26:39.547Z,6.62
2018-11-28T06:29:09.341Z,9.00
2018-11-28T06:31:39.322Z,8.70
2018-11-28T06:34:09.258Z,11.60
2018-11-28T06:36:40.194Z,10.20
2018-11-28T06:39:10.197Z,9.60
2018-11-28T06:41:40.095Z,6.42
2018-11-28T06:44:09.870Z,6.95
2018-11-28T06:46:39.766Z,7.17
2018-11-28T06:49:09.793Z,8.48
2018-11-28T06:51:39.569Z,9.40
2018-11-28T06:54:08.843Z,7.62
2018-11-28T06:56:37.791Z,8.35
2018-11-28T06:59:07.006Z,11.43
2018-11-28T07:01:37.138Z,14.63
2018-11-28T07:04:07.170Z,13.08
2018-11-28T07:06:36.640Z,7.28
2018-11-28T07:09:07.496Z,8.85
2018-11-28T07:11:37.745Z,10.60
2018-11-28T07:14:07.480Z,8.95
2018-11-28T07:16:36.637Z,10.75
2018-11-28T07:19:11.497Z,8.40
2018-11-28T07:21:40.913Z,9.40
2018-11-28T07:24:10.290Z,15.85
2018-11-28T07:26:40.160Z,10.25
2018-11-28T07:29:10.194Z,10.60
2018-11-28T07:31:40.096Z,7.87
2018-11-28T07:34:10.005Z,11.70
2018-11-28T07:36:40.608Z,9.93
2018-11-28T07:39:10.421Z,6.53
2018-11-28T07:41:41.517Z,11.35
2018-11-28T07:44:11.571Z,12.98
2018-11-28T07:46:42.374Z,13.70
2018-11-28T07:49:13.166Z,11.78
2018-11-28T07:51:43.346Z,21.27
2018-11-28T07:54:14.587Z,19.23
2018-11-28T07:56:45.833Z,23.52
2018-11-28T07:59:16.794Z,23.27
2018-11-28T08:01:46.957Z,30.27
2018-11-28T08:04:17.678Z,29.20
2018-11-28T08:06:48.720Z,27.98
2018-11-28T08:09:26.871Z,28.23
2018-11-28T08:11:57.603Z,46.08
2018-11-28T08:14:28.300Z,35.55
2018-11-28T08:16:59.406Z,24.00
2018-11-28T08:19:30.955Z,27.98
2018-11-28T08:22:01.295Z,28.67
2018-11-28T08:24:32.525Z,26.52
2018-11-28T08:27:02.778Z,24.93
2018-11-28T08:29:33.685Z,34.40
2018-11-28T08:32:04.983Z,21.77
2018-11-28T08:34:35.776Z,26.97
2018-11-28T08:37:06.386Z,26.00
2018-11-28T08:39:37.285Z,32.63
2018-11-28T08:42:09.839Z,29.37
2018-11-28T08:44:40.404Z,28.83
2018-11-28T08:47:11.218Z,30.00
2018-11-28T08:49:42.171Z,30.70
2018-11-28T08:52:13.069Z,28.60
2018-11-28T08:54:43.686Z,29.37
2018-11-28T08:57:15.615Z,30.50
2018-11-28T08:59:51.442Z,25.80
2018-11-28T09:02:22.417Z,29.87
2018-11-28T09:04:54.684Z,26.10
2018-11-28T09:07:25.491Z,27.40
2018-11-28T09:09:56.453Z,27.47
2018-11-28T09:12:26.360Z,31.17
2018-11-28T09:14:58.558Z,27.07
2018-11-28T09:17:28.126Z,24.70
2018-11-28T09:19:58.730Z,24.30
2018-11-28T09:22:29.633Z,26.17
2018-11-28T09:24:59.817Z,23.47
2018-11-28T09:27:30.693Z,28.53
2018-11-28T09:30:04.356Z,26.53
2018-11-28T09:32:37.612Z,30.50
2018-11-28T09:35:18.606Z,29.00
2018-11-28T09:37:49.621Z,28.27
2018-11-28T09:40:23.349Z,28.50
2018-11-28T09:42:57.081Z,25.40
2018-11-28T09:45:28.987Z,29.00
2018-11-28T09:47:59.383Z,27.40
2018-11-28T09:50:30.593Z,28.47
2018-11-28T09:53:00.955Z,28.10
2018-11-28T09:55:31.575Z,24.20
2018-11-28T09:58:01.793Z,27.20
2018-11-28T10:00:37.054Z,24.80
2018-11-28T10:03:07.208Z,25.33
2018-11-28T10:05:37.509Z,26.23
2018-11-28T10:08:08.222Z,27.97
2018-11-28T10:10:40.318Z,27.63
2018-11-28T10:13:10.617Z,28.00
2018-11-28T10:15:40.118Z,26.90
2018-11-28T10:18:10.017Z,27.00
2018-11-28T10:20:40.604Z,29.47
2018-11-28T10:23:10.798Z,26.23
2018-11-28T10:25:40.688Z,28.00
2018-11-28T10:28:11.433Z,27.60
2018-11-28T10:30:42.350Z,29.40
2018-11-28T10:33:14.401Z,28.47
2018-11-28T10:35:44.073Z,27.70
2018-11-28T10:38:14.234Z,26.00
2018-11-28T10:40:45.110Z,32.33
2018-11-28T10:43:15.037Z,32.50
2018-11-28T10:45:44.875Z,22.97
2018-11-28T10:48:14.795Z,23.40
2018-11-28T10:50:44.663Z,28.97
2018-11-28T10:53:15.286Z,24.40
2018-11-28T10:55:45.174Z,28.43
2018-11-28T10:58:16.092Z,27.37
2018-11-28T11:00:51.022Z,23.90
2018-11-28T11:03:27.015Z,22.90
2018-11-28T11:06:04.836Z,21.83
2018-11-28T11:10:44.819Z,26.07
2018-11-28T11:13:19.747Z,22.77
2018-11-28T11:15:54.714Z,37.20
2018-11-28T11:18:25.736Z,20.27
2018-11-28T11:20:56.410Z,24.07
2018-11-28T11:23:26.439Z,24.73
2018-11-28T11:25:56.332Z,23.47
2018-11-28T11:28:26.195Z,25.80
2018-11-28T11:30:56.038Z,23.60
2018-11-28T11:33:25.902Z,27.10
2018-11-28T11:35:55.871Z,20.13
2018-11-28T11:38:25.762Z,25.80
2018-11-28T11:40:56.374Z,20.13
2018-11-28T11:43:26.545Z,20.90
2018-11-28T11:45:56.401Z,23.07
2018-11-28T11:48:26.312Z,23.47
2018-11-28T11:50:56.190Z,20.80
2018-11-28T11:53:26.782Z,27.47
2018-11-28T11:55:56.979Z,23.63
2018-11-28T11:58:27.590Z,20.20
2018-11-28T12:00:58.478Z,22.07
2018-11-28T12:03:28.654Z,24.00
2018-11-28T12:05:59.550Z,22.93
2018-11-28T12:08:30.797Z,27.30
2018-11-28T12:11:00.350Z,25.77
2018-11-28T12:13:31.099Z,17.70
2018-11-28T12:16:01.223Z,19.97
2018-11-28T12:18:31.046Z,22.53
2018-11-28T12:21:02.879Z,22.00
2018-11-28T12:23:32.859Z,24.30
2018-11-28T12:26:02.739Z,25.03
2018-11-28T12:28:33.603Z,23.33
2018-11-28T12:31:03.546Z,23.90
2018-11-28T12:33:33.443Z,25.97
2018-11-28T12:36:03.330Z,23.93
2018-11-28T12:38:33.218Z,23.00
2018-11-28T12:41:03.826Z,21.40
2018-11-28T12:43:34.030Z,23.43
2018-11-28T12:46:05.247Z,21.70
2018-11-28T12:48:35.559Z,23.20
2018-11-28T12:51:06.667Z,23.03
2018-11-28T12:53:37.373Z,24.23
2018-11-28T12:56:08.439Z,23.83
2018-11-28T12:58:38.343Z,20.80
2018-11-28T13:01:08.259Z,18.23
2018-11-28T13:03:38.245Z,22.40
2018-11-28T13:06:09.156Z,20.90
2018-11-28T13:08:39.996Z,22.90
2018-11-28T13:11:10.682Z,23.27
2018-11-28T13:13:40.763Z,23.77
2018-11-28T13:16:11.784Z,26.00
2018-11-28T13:18:41.653Z,22.83
2018-11-28T13:21:12.128Z,22.13
2018-11-28T13:23:43.346Z,26.50
2018-11-28T13:26:13.323Z,19.83
2018-11-28T13:28:43.251Z,22.00
2018-11-28T13:31:13.159Z,21.10
2018-11-28T13:33:43.047Z,22.67
2018-11-28T13:36:12.944Z,26.20
2018-11-28T13:38:42.875Z,22.07
2018-11-28T13:41:13.465Z,21.50
2018-11-28T13:43:43.642Z,20.73
2018-11-28T13:46:13.548Z,20.20
2018-11-28T13:48:44.018Z,24.17
2018-11-28T13:51:14.973Z,22.60
2018-11-28T13:53:45.278Z,22.53
2018-11-28T13:56:58.242Z,26.50
2018-11-28T13:58:46.080Z,22.47
2018-11-28T14:01:15.913Z,25.03
2018-11-28T14:03:45.838Z,24.33
2018-11-28T14:06:15.735Z,21.40
2018-11-28T14:08:46.347Z,19.30
2018-11-28T14:11:16.530Z,24.80
2018-11-28T14:13:48.063Z,19.55
2018-11-28T14:16:18.362Z,24.47
2018-11-28T14:18:48.247Z,21.85
2018-11-28T14:21:18.892Z,21.60
2018-11-28T14:23:49.055Z,21.60
2018-11-28T14:26:19.922Z,22.45
2018-11-28T14:28:50.914Z,27.93
2018-11-28T14:31:22.434Z,22.73
2018-11-28T14:33:53.696Z,22.58
2018-11-28T14:36:23.583Z,29.40
2018-11-28T14:38:54.477Z,24.72
2018-11-28T14:41:25.219Z,26.25
2018-11-28T14:43:56.302Z,29.70
2018-11-28T14:46:26.915Z,26.25
2018-11-28T14:48:57.108Z,28.20
2018-11-28T14:51:26.986Z,45.58
2018-11-28T14:53:56.885Z,39.30
2018-11-28T14:56:26.786Z,32.75
2018-11-28T14:58:57.407Z,28.15
2018-11-28T15:01:27.502Z,27.77
2018-11-28T15:03:58.413Z,24.27
2018-11-28T15:06:31.432Z,25.37
2018-11-28T15:09:07.079Z,26.97
2018-11-28T15:11:38.610Z,21.75
2018-11-28T15:14:09.798Z,24.37
2018-11-28T15:16:52.813Z,20.43
2018-11-28T15:19:22.235Z,23.52
2018-11-28T15:21:51.994Z,26.17
2018-11-28T15:24:22.013Z,29.98
2018-11-28T15:26:52.938Z,23.90
2018-11-28T15:29:23.565Z,23.35
2018-11-28T15:31:54.682Z,22.60
2018-11-28T15:34:25.426Z,26.55
2018-11-28T15:36:56.309Z,27.10
2018-11-28T15:39:26.481Z,22.37
2018-11-28T15:41:57.131Z,26.82
2018-11-28T15:44:28.027Z,22.98
2018-11-28T15:46:58.207Z,23.40
2018-11-28T15:49:28.862Z,27.22
2018-11-28T15:51:59.015Z,27.45
2018-11-28T15:54:28.929Z,23.27
2018-11-28T15:56:59.547Z,30.00
2018-11-28T15:59:29.779Z,24.05
2018-11-28T16:02:00.384Z,32.13
2018-11-28T16:04:30.614Z,24.05
2018-11-28T16:07:01.506Z,29.85
2018-11-28T16:09:36.458Z,25.40
2018-11-28T16:12:07.073Z,26.95
2018-11-28T16:14:38.278Z,22.15
2018-11-28T16:17:09.219Z,25.35
2018-11-28T16:19:39.804Z,26.50
2018-11-28T16:22:09.977Z,22.80
2018-11-28T16:24:40.829Z,22.80
2018-11-28T16:27:12.318Z,24.87
2018-11-28T16:29:42.715Z,29.05
2018-11-28T16:32:12.660Z,26.87
2018-11-28T16:34:42.554Z,30.00
2018-11-28T16:37:12.439Z,30.12
2018-11-28T16:39:42.929Z,31.48
2018-11-28T16:42:13.966Z,26.17
2018-11-28T16:44:44.878Z,24.95
2018-11-28T16:47:15.061Z,29.37
2018-11-28T16:49:45.813Z,29.95
2018-11-28T16:52:15.862Z,23.00
2018-11-28T16:54:46.666Z,26.87
2018-11-28T16:57:17.597Z,27.40
2018-11-28T16:59:47.602Z,26.62
2018-11-28T17:02:18.908Z,36.68
2018-11-28T17:04:49.151Z,28.65
2018-11-28T17:07:19.321Z,29.67
2018-11-28T17:09:48.583Z,29.37
2018-11-28T17:12:17.877Z,27.15
2018-11-28T17:14:47.157Z,27.80
2018-11-28T17:17:16.617Z,28.35
2018-11-28T17:19:46.359Z,24.07
2018-11-28T17:22:16.602Z,21.33
2018-11-28T17:24:46.234Z,24.87
2018-11-28T17:27:17.339Z,28.87
2018-11-28T17:29:48.046Z,21.68
2018-11-28T17:32:18.130Z,21.95
2018-11-28T17:34:53.101Z,23.57
2018-11-28T17:37:22.865Z,23.75
2018-11-28T17:39:52.673Z,32.33
2018-11-28T17:42:25.618Z,30.12
2018-11-28T17:44:54.727Z,32.88
2018-11-28T17:47:25.620Z,29.45
2018-11-28T17:49:56.424Z,28.65
2018-11-28T17:52:26.755Z,30.17
2018-11-28T17:54:58.172Z,25.90
2018-11-28T17:57:27.242Z,24.92
2018-11-28T17:59:57.053Z,26.00
2018-11-28T18:02:27.849Z,25.32
2018-11-28T18:04:57.821Z,23.02
2018-11-28T18:07:29.718Z,32.88
2018-11-28T18:09:59.623Z,31.10
2018-11-28T18:12:30.361Z,31.05
2018-11-28T18:15:00.134Z,27.35
2018-11-28T18:17:30.245Z,31.02
2018-11-28T18:19:59.794Z,28.83
2018-11-28T18:22:29.996Z,28.83
2018-11-28T18:25:01.743Z,30.72
2018-11-28T18:27:32.792Z,33.25
2018-11-28T18:34:15.332Z,31.93
2018-11-28T18:36:59.629Z,30.95
2018-11-28T18:43:11.367Z,26.65
2018-11-28T18:46:16.982Z,26.90
2018-11-28T18:52:43.012Z,22.82
2018-11-28T18:55:24.896Z,24.45
2018-11-28T19:04:54.929Z,20.70
2018-11-28T19:07:31.717Z,23.52
2018-11-28T19:13:16.058Z,15.55
2018-11-28T19:15:52.330Z,22.50
2018-11-28T19:18:25.650Z,20.85
2018-11-28T19:21:04.213Z,22.58
2018-11-28T22:44:04.519Z,9.05
2018-11-28T23:22:35.859Z,9.58
